Terminal Aerodrome Forecast
Issued by NWS

Home | Current Version | Previous Version | Graphics & Text | Print | Product List | Glossary On
Versions: 1 2 3 4 5 6 7 8 9 10 11 12 13 14 15 16 17 18 19 20
000
FTUS43 KFGF 300500
TAFBJI
TAF
KBJI 300520Z 3006/3106 35007KT P6SM BKN008
     FM301500 03006KT P6SM BKN015
     FM302000 04006KT P6SM SCT025
     FM310000 12005KT P6SM SCT250=

USA.gov is the U.S. government's official web portal to all federal, state and local government web resources and services.